EW0758 Weather Reports


Display with metric or nautical units.
time (UTC)temp
F
wind
direction
speed
MPH
gust
MPH
rain 1hr
in
rain 24hr
in
rain mn
in
humidity
%
barometer
mb
20260508114757 89 25 1.0 15.0 0.00 0.00 0.00 69 1008.8
20260508114247 89 300 3.0 15.0 0.00 0.00 0.00 69 1008.7
20260508114137 90 7 3.0 15.0 0.00 0.00 0.00 69 1008.5
20260508113216 90 35 1.0 10.0 0.00 0.00 0.00 69 1008.5
20260508112709 90 298 0.0 10.0 0.00 0.00 0.00 68 1008.2
20260508112201 90 24 0.0 10.0 0.00 0.00 0.00 68 1008.2
20260508112049 90 7 0.0 13.0 0.00 0.00 0.00 68 1008.3
20260508111148 90 56 0.0 17.0 0.00 0.00 0.00 68 1008.2
20260508110635 91 29 0.0 17.0 0.00 0.00 0.00 68 1008.3
20260508110533 91 51 0.0 30.0 0.00 0.00 0.00 68 1008.3
20260508105624 91 40 4.0 30.0 0.00 0.00 0.00 67 1008.2
20260508105112 91 275 4.0 17.0 0.00 0.00 0.00 67 1007.8
20260508104608 91 96 2.0 17.0 0.00 0.00 0.00 66 1007.8
20260508104100 91 37 1.0 23.0 0.00 0.00 0.00 66 1007.9
20260508103603 92 16 9.0 23.0 0.00 0.00 0.00 66 1007.9
20260508103457 92 342 6.0 20.0 0.00 0.00 0.00 66 1007.7
20260508102552 92 66 9.0 15.0 0.00 0.00 0.00 65 1007.7
20260508102032 92 119 2.0 15.0 0.00 0.00 0.00 65 1007.3
20260508101758 92 32 1.0 10.0 0.00 0.00 0.00 66 1007.4
20260508101526 92 32 1.0 10.0 0.00 0.00 0.00 66 1007.4
20260508101013 93 53 0.0 13.0 0.00 0.00 0.00 66 1007.4
20260508100510 93 61 2.0 15.0 0.00 0.00 0.00 65 1007.3
20260508100003 93 20 0.0 15.0 0.00 0.00 0.00 65 1007.3
20260508095450 93 65 3.0 13.0 0.00 0.00 0.00 65 1007.3
20260508094945 93 28 0.0 13.0 0.00 0.00 0.00 66 1006.9
20260508094439 93 30 1.0 17.0 0.00 0.00 0.00 66 1006.9
20260508094346 93 323 9.0 23.0 0.00 0.00 0.00 67 1006.6
20260508093411 93 89 5.0 23.0 0.00 0.00 0.00 67 1006.5
20260508093251 94 190 6.0 17.0 0.00 0.00 0.00 68 1006.9
20260508092359 94 127 4.0 17.0 0.00 0.00 0.00 68 1006.6
20260508091850 94 42 5.0 13.0 0.00 0.00 0.00 68 1006.5
20260508091348 94 57 5.0 20.0 0.00 0.00 0.00 67 1006.3
20260508090836 94 218 0.0 20.0 0.00 0.00 0.00 66 1006.5
20260508090331 95 19 1.0 10.0 0.00 0.00 0.00 65 1006.6
20260508085927 96 213 5.0 10.0 0.00 0.00 0.00 64 1006.4
20260508085812 95 322 7.0 10.0 0.00 0.00 0.00 65 1006.4
20260508085649 95 28 0.0 10.0 0.00 0.00 0.00 65 1006.2
20260508084247 95 342 6.0 10.0 0.00 0.00 0.00 65 1006.1
20260508083744 95 101 2.0 5.0 0.00 0.00 0.00 65 1006.2
20260508083248 95 187 3.0 5.0 0.00 0.00 0.00 65 1006.2
20260508082731 95 24 1.0 5.0 0.00 0.00 0.00 66 1006.3
20260508082219 95 27 0.0 8.0 0.00 0.00 0.00 65 1006.2
20260508081710 94 7 0.0 8.0 0.00 0.00 0.00 67 1006.1
20260508081334 95 11 1.0 8.0 0.00 0.00 0.00 67 1006.1
20260508080526 95 18 2.0 10.0 0.00 0.00 0.00 66 1006.0
20260508075640 94 7 2.0 10.0 0.00 0.00 0.00 66 1006.2
20260508075139 94 170 4.0 10.0 0.00 0.00 0.00 68 1006.2
20260508074736 94 206 2.0 13.0 0.00 0.00 0.00 67 1006.1
20260508073607 95 204 5.0 10.0 0.00 0.00 0.00 67 1006.1
20260508073100 94 35 0.0 13.0 0.00 0.00 0.00 68 1006.2
20260508073001 93 357 2.0 15.0 0.00 0.00 0.00 69 1006.2
20260508072038 92 17 9.0 15.0 0.00 0.00 0.00 69 1006.4
20260508071521 92 19 3.0 15.0 0.00 0.00 0.00 69 1006.4
20260508071001 93 328 4.0 23.0 0.00 0.00 0.00 70 1006.6
20260508070453 93 2 13.0 23.0 0.00 0.00 0.00 70 1006.5
20260508065940 93 319 14.0 23.0 0.00 0.00 0.00 70 1006.4
20260508065432 94 22 10.0 23.0 0.00 0.00 0.00 70 1006.5
20260508064924 94 327 9.0 23.0 0.00 0.00 0.00 70 1006.4
20260508064424 93 3 12.0 20.0 0.00 0.00 0.00 70 1006.3
20260508064100 94 10 10.0 25.0 0.00 0.00 0.00 69 1006.5
20260508062852 96 347 7.0 15.0 0.00 0.00 0.00 68 1006.5
20260508062341 95 221 5.0 23.0 0.00 0.00 0.00 69 1006.5
20260508061829 95 339 17.0 23.0 0.00 0.00 0.00 69 1006.6
20260508061332 94 319 1.0 20.0 0.00 0.00 0.00 69 1006.9
20260508060850 93 320 2.0 20.0 0.00 0.00 0.00 70 1006.9
20260508060702 95 19 6.0 17.0 0.00 0.00 0.00 69 1007.0
20260508055800 94 22 7.0 23.0 0.00 0.00 0.00 70 1007.0
20260508055238 92 93 8.0 23.0 0.00 0.00 0.00 71 1007.2
20260508054735 95 86 3.0 23.0 0.00 0.00 0.00 69 1007.1
20260508054228 94 4 0.0 25.0 0.00 0.00 0.00 70 1007.2
20260508054213 93 337 14.0 28.0 0.00 0.00 0.00 73 1007.4
20260508053417 92 19 2.0 23.0 0.00 0.00 0.00 74 1007.5
20260508053205 93 344 11.0 23.0 0.00 0.00 0.00 72 1007.3
20260508051639 92 7 13.0 23.0 0.00 0.00 0.00 73 1007.5
20260508051129 93 343 12.0 23.0 0.00 0.00 0.00 73 1007.5
20260508050611 92 286 11.0 23.0 0.00 0.00 0.00 73 1007.7
20260508050512 92 1 13.0 17.0 0.00 0.00 0.00 74 1008.0
20260508045545 92 10 1.0 17.0 0.00 0.00 0.00 72 1008.1
20260508045032 92 316 16.0 20.0 0.00 0.00 0.00 74 1008.2
20260508044525 93 17 2.0 23.0 0.00 0.00 0.00 72 1008.1
20260508044025 92 347 8.0 23.0 0.00 0.00 0.00 73 1008.3
20260508043502 92 320 14.0 23.0 0.00 0.00 0.00 75 1008.4
20260508042940 92 2 9.0 23.0 0.00 0.00 0.00 74 1008.2
20260508042436 93 349 8.0 20.0 0.00 0.00 0.00 72 1008.4
20260508041937 92 199 6.0 25.0 0.00 0.00 0.00 74 1008.4
20260508041425 92 292 6.0 25.0 0.00 0.00 0.00 74 1008.5
20260508040905 94 354 0.0 23.0 0.00 0.00 0.00 72 1008.6
20260508040400 94 359 15.0 20.0 0.00 0.00 0.00 72 1008.6
20260508035920 93 209 15.0 20.0 0.00 0.00 0.00 72 1008.5
20260508035850 93 239 8.0 23.0 0.00 0.00 0.00 72 1008.6
20260508035256 92 346 11.0 25.0 0.00 0.00 0.00 73 1008.6
20260508034315 93 258 5.0 25.0 0.00 0.00 0.00 71 1008.8
20260508034219 92 309 1.0 25.0 0.00 0.00 0.00 72 1009.0
20260508033247 91 206 14.0 30.0 0.00 0.00 0.00 73 1008.9
20260508032741 90 208 17.0 33.0 0.00 0.00 0.00 75 1009.2
20260508032238 91 203 12.0 33.0 0.00 0.00 0.00 74 1009.1
20260508031724 90 91 14.0 30.0 0.00 0.00 0.00 75 1009.2
20260508031204 91 39 5.0 33.0 0.00 0.00 0.00 74 1009.4
20260508030645 89 230 11.0 33.0 0.00 0.00 0.00 76 1009.5
20260508030139 90 264 3.0 25.0 0.00 0.00 0.00 74 1009.2
20260508025618 91 210 7.0 33.0 0.00 0.00 0.00 73 1009.5
20260508025100 91 218 5.0 33.0 0.00 0.00 0.00 73 1009.3
20260508024552 91 328 11.0 17.0 0.00 0.00 0.00 74 1009.4
20260508024414 91 2 2.0 20.0 0.00 0.00 0.00 72 1009.6
20260508023536 90 331 11.0 17.0 0.00 0.00 0.00 74 1009.6
20260508023028 90 47 0.0 23.0 0.00 0.00 0.00 74 1009.7
20260508022509 89 173 13.0 23.0 0.00 0.00 0.00 74 1009.7
20260508021952 89 327 8.0 20.0 0.00 0.00 0.00 76 1009.8
20260508021448 89 162 7.0 17.0 0.00 0.00 0.00 76 1010.1
20260508020924 90 298 3.0 10.0 0.00 0.00 0.00 75 1010.0
20260508020407 88 15 3.0 15.0 0.00 0.00 0.00 76 1010.0
20260508020010 88 199 9.0 15.0 0.00 0.00 0.00 78 1010.1
20260508014843 88 2 2.0 13.0 0.00 0.00 0.00 77 1010.0
20260508014329 88 200 3.0 15.0 0.00 0.00 0.00 77 1010.0
20260508013832 87 1 4.0 17.0 0.00 0.00 0.00 78 1010.1
20260508013308 87 26 9.0 17.0 0.00 0.00 0.00 79 1010.3
20260508012803 89 29 0.0 15.0 0.00 0.00 0.00 76 1010.0
20260508012242 89 356 9.0 15.0 0.00 0.00 0.00 77 1010.2
20260508011742 89 5 6.0 15.0 0.00 0.00 0.00 76 1010.0
20260508011652 89 6 6.0 17.0 0.00 0.00 0.00 77 1010.1
20260508010717 89 179 10.0 20.0 0.00 0.00 0.00 77 1010.2
20260508010204 89 20 2.0 20.0 0.00 0.00 0.00 76 1010.2
20260508005702 90 342 7.0 10.0 0.00 0.00 0.00 76 1010.3
20260508005152 90 6 3.0 10.0 0.00 0.00 0.00 75 1010.3
20260508004655 88 39 1.0 10.0 0.00 0.00 0.00 78 1010.0
20260508004146 89 33 0.0 17.0 0.00 0.00 0.00 77 1009.9
20260508003642 88 185 10.0 17.0 0.00 0.00 0.00 79 1010.1
20260508003135 90 32 2.0 8.0 0.00 0.00 0.00 74 1009.9
20260508002614 91 31 1.0 10.0 0.00 0.00 0.00 73 1010.1
20260508002059 90 37 0.0 10.0 0.00 0.00 0.00 73 1010.3
20260508001550 89 172 4.0 10.0 0.00 0.00 0.00 75 1010.1
20260508001057 88 7 2.0 5.0 0.00 0.00 0.00 76 1010.1
20260508000550 89 35 0.0 8.0 0.00 0.00 0.00 76 1010.2
20260508000027 88 37 1.0 8.0 0.00 0.00 0.00 76 1010.1
20260507235521 89 81 2.0 8.0 0.00 0.00 0.00 75 1009.9
20260507235016 88 29 2.0 8.0 0.00 0.00 0.00 76 1009.9
20260507234509 89 94 4.0 8.0 0.00 0.00 0.00 76 1009.8
20260507233958 88 221 1.0 8.0 0.00 0.00 0.00 76 1010.0
20260507233448 86 25 2.0 10.0 0.00 0.00 0.00 79 1010.1
20260507232943 87 15 2.0 10.0 0.00 0.00 0.00 78 1010.1
20260507232451 86 8 2.0 8.0 0.00 0.00 0.00 78 1009.6
20260507231922 87 48 0.0 8.0 0.00 0.00 0.00 78 1009.7
20260507231419 86 287 1.0 8.0 0.00 0.00 0.00 79 1009.6
20260507230910 85 353 2.0 5.0 0.00 0.00 0.00 80 1009.7
20260507230403 86 30 0.0 8.0 0.00 0.00 0.00 79 1009.9
20260507230226 85 59 0.0 8.0 0.00 0.00 0.00 81 1009.7
20260507225349 85 31 3.0 8.0 0.00 0.00 0.00 81 1009.7
20260507224837 84 23 0.0 0.0 0.00 0.00 0.00 81 1009.9
20260507224335 84 28 0.0 0.0 0.00 0.00 0.00 82 1009.3
20260507223930 83 16 0.0 0.0 0.00 0.00 0.00 82 1009.6
20260507222807 83 29 0.0 0.0 0.00 0.00 0.00 83 1009.6
20260507222301 83 25 0.0 5.0 0.00 0.00 0.00 83 1009.5
20260507221750 83 26 0.0 5.0 0.00 0.00 0.00 83 1009.3
20260507221241 83 18 3.0 8.0 0.00 0.00 0.00 83 1009.5
20260507220735 83 24 0.0 8.0 0.00 0.00 0.00 84 1009.3
20260507220231 83 11 0.0 5.0 0.00 0.00 0.00 83 1009.3
20260507215714 83 21 0.0 2.0 0.00 0.00 0.00 83 1009.2
20260507215209 83 20 0.0 2.0 0.00 0.00 0.00 84 1009.1
20260507214704 83 36 0.0 2.0 0.00 0.00 0.00 83 1009.3
20260507214156 82 64 1.0 2.0 0.00 0.00 0.00 84 1009.1
20260507213645 82 36 0.0 5.0 0.00 0.00 0.00 84 1009.2
20260507213136 82 17 2.0 5.0 0.00 0.00 0.00 84 1009.1
20260507212521 82 39 2.0 8.0 0.00 0.00 0.00 84 1009.1
20260507211604 83 10 3.0 8.0 0.00 0.00 0.00 84 1008.8
20260507211233 83 9 2.0 5.0 0.00 0.00 0.00 84 1008.6
20260507210040 82 34 0.0 5.0 0.00 0.00 0.00 84 1008.7
20260507205532 82 17 2.0 5.0 0.00 0.00 0.00 84 1008.8
20260507205017 82 23 0.0 2.0 0.00 0.00 0.00 84 1008.7
20260507204454 82 5 2.0 5.0 0.00 0.00 0.00 84 1009.1
20260507203939 82 7 1.0 5.0 0.00 0.00 0.00 85 1008.9
20260507203426 82 25 0.0 8.0 0.00 0.00 0.00 86 1009.0
20260507203256 82 7 0.0 10.0 0.00 0.00 0.00 86 1008.5
20260507202410 82 22 2.0 13.0 0.00 0.00 0.00 85 1008.7
20260507201903 83 350 3.0 23.0 0.00 0.00 0.00 84 1008.6
20260507201357 83 343 7.0 23.0 0.00 0.00 0.00 84 1008.6
20260507200845 84 18 3.0 17.0 0.00 0.00 0.00 82 1008.6
20260507200352 83 9 9.0 17.0 0.00 0.00 0.00 82 1008.3
20260507195830 83 22 0.0 13.0 0.00 0.00 0.00 82 1008.6
20260507195323 83 356 3.0 8.0 0.00 0.00 0.00 82 1008.5
20260507194804 83 19 0.0 2.0 0.00 0.00 0.00 82 1008.7
20260507194624 83 32 0.0 5.0 0.00 0.00 0.00 82 1008.5
20260507193746 83 22 1.0 8.0 0.00 0.00 0.00 82 1008.4
20260507193242 83 17 0.0 10.0 0.00 0.00 0.00 82 1008.4
20260507192731 84 5 4.0 10.0 0.00 0.00 0.00 82 1008.3
20260507192222 83 19 0.0 5.0 0.00 0.00 0.00 81 1008.5
20260507192059 83 17 3.0 10.0 0.00 0.00 0.00 81 1008.3
20260507191211 83 17 4.0 10.0 0.00 0.00 0.00 82 1008.4
20260507191109 83 17 2.0 10.0 0.00 0.00 0.00 82 1008.4
20260507190302 83 358 3.0 10.0 0.00 0.00 0.00 82 1008.5
20260507185134 83 6 2.0 5.0 0.00 0.00 0.00 82 1008.3
20260507184629 83 19 0.0 8.0 0.00 0.00 0.00 82 1008.3
20260507184524 83 20 0.0 15.0 0.00 0.00 0.00 82 1008.3
20260507183600 83 23 5.0 17.0 0.00 0.00 0.00 82 1008.3
20260507183053 84 353 9.0 17.0 0.00 0.00 0.00 82 1008.4
20260507182545 84 8 1.0 15.0 0.00 0.00 0.00 82 1008.3
20260507182038 84 353 6.0 13.0 0.00 0.00 0.00 81 1008.3
20260507181525 84 26 1.0 8.0 0.00 0.00 0.00 81 1008.1
20260507181021 84 1 2.0 10.0 0.00 0.00 0.00 81 1008.2
20260507180511 84 25 3.0 10.0 0.00 0.00 0.00 81 1008.4
20260507180003 84 338 0.0 8.0 0.00 0.00 0.00 80 1008.4
20260507175455 84 11 3.0 10.0 0.00 0.00 0.00 80 1008.4
20260507174947 84 25 2.0 10.0 0.00 0.00 0.00 80 1008.4
20260507174452 84 28 0.0 8.0 0.00 0.00 0.00 80 1008.2
20260507173935 84 12 2.0 10.0 0.00 0.00 0.00 80 1008.2
20260507173837 84 357 3.0 10.0 0.00 0.00 0.00 80 1008.4
20260507172916 84 9 4.0 10.0 0.00 0.00 0.00 80 1008.6
20260507172411 84 11 3.0 10.0 0.00 0.00 0.00 80 1008.7
20260507172329 84 8 3.0 10.0 0.00 0.00 0.00 80 1008.7
20260507171350 84 13 4.0 10.0 0.00 0.00 0.00 80 1008.6
20260507170849 84 339 3.0 8.0 0.00 0.00 0.00 80 1008.6
20260507170334 85 8 4.0 10.0 0.00 0.00 0.00 80 1008.5
20260507165831 85 14 4.0 10.0 0.00 0.00 0.00 79 1008.6
20260507165321 85 344 5.0 15.0 0.00 0.00 0.00 79 1008.5
20260507164809 85 341 10.0 15.0 0.00 0.00 0.00 79 1008.5
20260507164307 85 351 6.0 10.0 0.00 0.00 0.00 78 1008.3
20260507163756 85 17 2.0 8.0 0.00 0.00 0.00 78 1008.5
20260507163212 85 25 0.0 5.0 0.00 0.00 0.00 78 1008.5
20260507162245 85 26 0.0 8.0 0.00 0.00 0.00 78 1008.4
20260507161715 85 11 0.0 8.0 0.00 0.00 0.00 78 1008.5
20260507161205 86 347 2.0 8.0 0.00 0.00 0.00 77 1008.5
20260507160700 86 1 0.0 5.0 0.00 0.00 0.00 77 1008.8
20260507160153 86 30 1.0 5.0 0.00 0.00 0.00 76 1008.7
20260507155642 86 39 0.0 5.0 0.00 0.00 0.00 76 1008.6
20260507155133 86 25 0.0 8.0 0.00 0.00 0.00 76 1008.6
20260507154625 86 40 0.0 8.0 0.00 0.00 0.00 76 1008.5
20260507154453 86 310 3.0 5.0 0.00 0.00 0.00 76 1008.8
20260507153608 86 23 0.0 10.0 0.00 0.00 0.00 76 1008.7
20260507153111 86 67 7.0 10.0 0.00 0.00 0.00 76 1008.8
20260507152552 86 30 0.0 8.0 0.00 0.00 0.00 76 1008.6
20260507152045 86 23 1.0 8.0 0.00 0.00 0.00 76 1008.9
20260507151535 86 28 0.0 8.0 0.00 0.00 0.00 76 1008.9
20260507151031 86 52 0.0 8.0 0.00 0.00 0.00 76 1008.9
20260507150521 86 73 5.0 8.0 0.00 0.00 0.00 76 1008.8
20260507150006 86 50 5.0 8.0 0.00 0.00 0.00 76 1008.8
20260507145447 86 22 0.0 8.0 0.00 0.00 0.00 76 1009.0
20260507144935 87 36 0.0 10.0 0.00 0.00 0.00 76 1008.8
20260507144425 87 25 0.0 10.0 0.00 0.00 0.00 75 1009.0
20260507143921 87 73 4.0 13.0 0.00 0.00 0.00 76 1009.0
20260507143417 87 95 9.0 13.0 0.00 0.00 0.00 75 1009.0
20260507142959 87 84 3.0 8.0 0.00 0.00 0.00 75 1008.8
20260507141835 87 19 1.0 10.0 0.00 0.00 0.00 75 1008.9
20260507141330 87 22 0.0 13.0 0.00 0.00 0.00 75 1008.6
20260507141211 87 52 0.0 13.0 0.00 0.00 0.00 75 1008.9
20260507140311 87 108 3.0 13.0 0.00 0.00 0.00 75 1008.9
20260507135804 87 306 4.0 13.0 0.00 0.00 0.00 75 1008.7
20260507135252 87 124 3.0 15.0 0.00 0.00 0.00 75 1008.9
20260507135145 87 350 4.0 20.0 0.00 0.00 0.00 75 1008.6
20260507134238 87 18 1.0 20.0 0.00 0.00 0.00 75 1008.8
20260507133732 87 179 1.0 13.0 0.00 0.00 0.00 75 1008.7
20260507133632 87 300 1.0 8.0 0.00 0.00 0.00 75 1008.8
20260507132714 87 189 0.0 10.0 0.00 0.00 0.00 75 1008.8
20260507132207 87 44 1.0 15.0 0.00 0.00 0.00 75 1008.6
20260507131703 87 21 1.0 15.0 0.00 0.00 0.00 74 1008.5
20260507131150 87 101 6.0 13.0 0.00 0.00 0.00 74 1008.4
20260507130644 87 40 3.0 10.0 0.00 0.00 0.00 74 1008.7
20260507130148 87 36 0.0 13.0 0.00 0.00 0.00 74 1008.4
20260507130029 88 213 2.0 13.0 0.00 0.00 0.00 73 1008.5
20260507125126 88 334 2.0 10.0 0.00 0.00 0.00 73 1008.4
20260507124614 88 93 3.0 8.0 0.00 0.00 0.00 72 1008.3
20260507124056 88 140 2.0 8.0 0.00 0.00 0.00 72 1008.3
20260507123549 88 26 0.0 13.0 0.00 0.00 0.00 72 1008.2
20260507123042 88 37 0.0 13.0 0.00 0.00 0.00 71 1008.5
20260507122932 89 25 0.0 10.0 0.00 0.00 0.00 71 1008.3
20260507122020 89 21 0.0 10.0 0.00 0.00 0.00 70 1008.2
20260507121519 89 6 0.0 17.0 0.00 0.00 0.00 70 1008.1
20260507120953 89 31 0.0 17.0 0.00 0.00 0.00 69 1008.0
20260507120444 89 40 0.0 15.0 0.00 0.00 0.00 69 1008.1
20260507115936 89 27 0.0 15.0 0.00 0.00 0.00 69 1008.0